sensor_id;sensor_type;location;lat;lon;timestamp;temperature;humidity
65884;HTU21D;52663;51.038;5.858;2022-09-02T00:01:45;21.51;44.49
65884;HTU21D;52663;51.038;5.858;2022-09-02T00:04:20;21.49;44.40
65884;HTU21D;52663;51.038;5.858;2022-09-02T00:06:48;21.47;44.39
65884;HTU21D;52663;51.038;5.858;2022-09-02T00:09:16;21.45;44.52
65884;HTU21D;52663;51.038;5.858;2022-09-02T00:11:49;21.44;44.59
65884;HTU21D;52663;51.038;5.858;2022-09-02T00:14:23;21.42;44.68
65884;HTU21D;52663;51.038;5.858;2022-09-02T00:16:58;21.38;44.86
65884;HTU21D;52663;51.038;5.858;2022-09-02T00:19:28;21.37;44.86
65884;HTU21D;52663;51.038;5.858;2022-09-02T00:21:56;21.33;45.03
65884;HTU21D;52663;51.038;5.858;2022-09-02T00:24:23;21.32;45.03
65884;HTU21D;52663;51.038;5.858;2022-09-02T00:26:52;21.34;45.19
65884;HTU21D;52663;51.038;5.858;2022-09-02T00:29:18;21.37;45.17
65884;HTU21D;52663;51.038;5.858;2022-09-02T00:31:45;21.40;45.16
65884;HTU21D;52663;51.038;5.858;2022-09-02T00:34:13;21.44;45.14
65884;HTU21D;52663;51.038;5.858;2022-09-02T00:36:39;21.42;45.06
65884;HTU21D;52663;51.038;5.858;2022-09-02T00:39:06;21.42;45.08
65884;HTU21D;52663;51.038;5.858;2022-09-02T00:41:33;21.39;45.23
65884;HTU21D;52663;51.038;5.858;2022-09-02T00:44:03;21.42;45.18
65884;HTU21D;52663;51.038;5.858;2022-09-02T00:46:31;21.39;45.20
65884;HTU21D;52663;51.038;5.858;2022-09-02T00:49:05;21.38;45.26
65884;HTU21D;52663;51.038;5.858;2022-09-02T00:51:38;21.38;45.34
65884;HTU21D;52663;51.038;5.858;2022-09-02T00:54:06;21.35;45.42
65884;HTU21D;52663;51.038;5.858;2022-09-02T00:56:36;21.36;45.48
65884;HTU21D;52663;51.038;5.858;2022-09-02T00:59:11;21.35;45.54
65884;HTU21D;52663;51.038;5.858;2022-09-02T01:01:41;21.35;45.70
65884;HTU21D;52663;51.038;5.858;2022-09-02T01:04:07;21.32;45.93
65884;HTU21D;52663;51.038;5.858;2022-09-02T01:06:33;21.30;46.09
65884;HTU21D;52663;51.038;5.858;2022-09-02T01:09:11;21.28;46.34
65884;HTU21D;52663;51.038;5.858;2022-09-02T01:11:42;21.23;46.57
65884;HTU21D;52663;51.038;5.858;2022-09-02T01:14:09;21.19;46.88
65884;HTU21D;52663;51.038;5.858;2022-09-02T01:16:55;21.16;47.02
65884;HTU21D;52663;51.038;5.858;2022-09-02T01:19:29;21.16;47.10
65884;HTU21D;52663;51.038;5.858;2022-09-02T01:21:56;21.16;47.09
65884;HTU21D;52663;51.038;5.858;2022-09-02T01:24:29;21.15;47.10
65884;HTU21D;52663;51.038;5.858;2022-09-02T01:26:58;21.14;47.03
65884;HTU21D;52663;51.038;5.858;2022-09-02T01:29:32;21.14;46.92
65884;HTU21D;52663;51.038;5.858;2022-09-02T01:31:58;21.10;47.02
65884;HTU21D;52663;51.038;5.858;2022-09-02T01:34:24;21.08;46.97
65884;HTU21D;52663;51.038;5.858;2022-09-02T01:36:52;21.05;47.09
65884;HTU21D;52663;51.038;5.858;2022-09-02T01:39:18;21.03;47.04
65884;HTU21D;52663;51.038;5.858;2022-09-02T01:41:44;21.00;47.06
65884;HTU21D;52663;51.038;5.858;2022-09-02T01:44:13;20.96;47.18
65884;HTU21D;52663;51.038;5.858;2022-09-02T01:46:41;20.96;47.27
65884;HTU21D;52663;51.038;5.858;2022-09-02T01:49:07;20.95;47.35
65884;HTU21D;52663;51.038;5.858;2022-09-02T01:51:33;20.93;47.37
65884;HTU21D;52663;51.038;5.858;2022-09-02T01:54:00;20.91;47.55
65884;HTU21D;52663;51.038;5.858;2022-09-02T01:56:26;20.91;47.58
65884;HTU21D;52663;51.038;5.858;2022-09-02T01:58:52;20.90;47.56
65884;HTU21D;52663;51.038;5.858;2022-09-02T02:01:18;20.88;47.63
65884;HTU21D;52663;51.038;5.858;2022-09-02T02:03:46;20.85;47.71
65884;HTU21D;52663;51.038;5.858;2022-09-02T02:06:15;20.86;47.79
65884;HTU21D;52663;51.038;5.858;2022-09-02T02:08:46;20.88;47.79
65884;HTU21D;52663;51.038;5.858;2022-09-02T02:11:23;20.89;47.82
65884;HTU21D;52663;51.038;5.858;2022-09-02T02:13:54;20.89;47.68
65884;HTU21D;52663;51.038;5.858;2022-09-02T02:16:21;20.88;47.84
65884;HTU21D;52663;51.038;5.858;2022-09-02T02:18:46;20.89;47.83
65884;HTU21D;52663;51.038;5.858;2022-09-02T02:21:12;20.89;47.91
65884;HTU21D;52663;51.038;5.858;2022-09-02T02:23:41;20.89;47.86
65884;HTU21D;52663;51.038;5.858;2022-09-02T02:26:07;20.90;47.90
65884;HTU21D;52663;51.038;5.858;2022-09-02T02:28:34;20.92;47.86
65884;HTU21D;52663;51.038;5.858;2022-09-02T02:31:03;20.92;47.85
65884;HTU21D;52663;51.038;5.858;2022-09-02T02:33:30;20.94;47.91
65884;HTU21D;52663;51.038;5.858;2022-09-02T02:35:56;20.93;47.93
65884;HTU21D;52663;51.038;5.858;2022-09-02T02:38:23;20.93;47.99
65884;HTU21D;52663;51.038;5.858;2022-09-02T02:40:54;20.93;47.95
65884;HTU21D;52663;51.038;5.858;2022-09-02T02:43:28;20.98;47.96
65884;HTU21D;52663;51.038;5.858;2022-09-02T02:45:56;21.00;47.87
65884;HTU21D;52663;51.038;5.858;2022-09-02T02:48:22;21.01;47.79
65884;HTU21D;52663;51.038;5.858;2022-09-02T02:50:50;21.00;47.71
65884;HTU21D;52663;51.038;5.858;2022-09-02T02:53:16;21.04;47.58
65884;HTU21D;52663;51.038;5.858;2022-09-02T02:55:43;21.04;47.57
65884;HTU21D;52663;51.038;5.858;2022-09-02T02:58:10;21.03;47.53
65884;HTU21D;52663;51.038;5.858;2022-09-02T03:00:37;21.04;47.60
65884;HTU21D;52663;51.038;5.858;2022-09-02T03:03:06;21.06;47.60
65884;HTU21D;52663;51.038;5.858;2022-09-02T03:05:36;21.06;47.37
65884;HTU21D;52663;51.038;5.858;2022-09-02T03:08:08;21.03;47.71
65884;HTU21D;52663;51.038;5.858;2022-09-02T03:10:35;21.00;47.85
65884;HTU21D;52663;51.038;5.858;2022-09-02T03:13:07;21.00;47.88
65884;HTU21D;52663;51.038;5.858;2022-09-02T03:15:37;21.01;48.15
65884;HTU21D;52663;51.038;5.858;2022-09-02T03:18:07;21.00;48.09
65884;HTU21D;52663;51.038;5.858;2022-09-02T03:20:34;21.00;48.22
65884;HTU21D;52663;51.038;5.858;2022-09-02T03:23:03;20.99;48.03
65884;HTU21D;52663;51.038;5.858;2022-09-02T03:25:32;21.00;48.28
65884;HTU21D;52663;51.038;5.858;2022-09-02T03:28:08;21.01;48.22
65884;HTU21D;52663;51.038;5.858;2022-09-02T03:30:35;21.01;48.24
65884;HTU21D;52663;51.038;5.858;2022-09-02T03:33:02;21.02;48.12
65884;HTU21D;52663;51.038;5.858;2022-09-02T03:35:36;21.00;48.17
65884;HTU21D;52663;51.038;5.858;2022-09-02T03:38:03;20.99;48.15
65884;HTU21D;52663;51.038;5.858;2022-09-02T03:40:30;21.00;48.23
65884;HTU21D;52663;51.038;5.858;2022-09-02T03:42:58;20.98;48.20
65884;HTU21D;52663;51.038;5.858;2022-09-02T03:45:26;21.00;48.24
65884;HTU21D;52663;51.038;5.858;2022-09-02T03:47:56;20.99;48.22
65884;HTU21D;52663;51.038;5.858;2022-09-02T03:50:30;20.98;48.34
65884;HTU21D;52663;51.038;5.858;2022-09-02T03:52:59;20.95;48.37
65884;HTU21D;52663;51.038;5.858;2022-09-02T03:55:27;20.93;48.41
65884;HTU21D;52663;51.038;5.858;2022-09-02T03:57:54;20.94;48.37
65884;HTU21D;52663;51.038;5.858;2022-09-02T04:00:25;20.94;48.24
65884;HTU21D;52663;51.038;5.858;2022-09-02T04:03:09;20.95;48.08
65884;HTU21D;52663;51.038;5.858;2022-09-02T04:05:35;20.94;47.64
65884;HTU21D;52663;51.038;5.858;2022-09-02T04:08:02;20.92;47.63
65884;HTU21D;52663;51.038;5.858;2022-09-02T04:10:29;20.93;47.57
65884;HTU21D;52663;51.038;5.858;2022-09-02T04:12:56;20.91;47.49
65884;HTU21D;52663;51.038;5.858;2022-09-02T04:15:22;20.89;47.49
65884;HTU21D;52663;51.038;5.858;2022-09-02T04:17:49;20.87;47.50
65884;HTU21D;52663;51.038;5.858;2022-09-02T04:20:21;20.84;47.54
65884;HTU21D;52663;51.038;5.858;2022-09-02T04:22:48;20.85;47.67
65884;HTU21D;52663;51.038;5.858;2022-09-02T04:25:14;20.84;47.65
65884;HTU21D;52663;51.038;5.858;2022-09-02T04:27:40;20.84;47.91
65884;HTU21D;52663;51.038;5.858;2022-09-02T04:30:08;20.84;47.83
65884;HTU21D;52663;51.038;5.858;2022-09-02T04:32:36;20.80;47.65
65884;HTU21D;52663;51.038;5.858;2022-09-02T04:35:04;20.73;47.93
65884;HTU21D;52663;51.038;5.858;2022-09-02T04:37:31;20.70;47.93
65884;HTU21D;52663;51.038;5.858;2022-09-02T04:39:59;20.69;48.09
65884;HTU21D;52663;51.038;5.858;2022-09-02T04:42:25;20.68;48.16
65884;HTU21D;52663;51.038;5.858;2022-09-02T04:44:54;20.69;48.28
65884;HTU21D;52663;51.038;5.858;2022-09-02T04:47:23;20.73;47.99
65884;HTU21D;52663;51.038;5.858;2022-09-02T04:49:50;20.74;48.08
65884;HTU21D;52663;51.038;5.858;2022-09-02T04:52:21;20.78;48.02
65884;HTU21D;52663;51.038;5.858;2022-09-02T04:54:48;20.74;48.05
65884;HTU21D;52663;51.038;5.858;2022-09-02T04:57:14;20.71;48.10
65884;HTU21D;52663;51.038;5.858;2022-09-02T04:59:41;20.65;48.41
65884;HTU21D;52663;51.038;5.858;2022-09-02T05:02:09;20.63;48.42
65884;HTU21D;52663;51.038;5.858;2022-09-02T05:04:53;20.62;48.37
65884;HTU21D;52663;51.038;5.858;2022-09-02T05:07:30;20.60;48.21
65884;HTU21D;52663;51.038;5.858;2022-09-02T05:09:59;20.64;48.23
65884;HTU21D;52663;51.038;5.858;2022-09-02T05:12:32;20.68;48.03
65884;HTU21D;52663;51.038;5.858;2022-09-02T05:14:59;20.64;47.94
65884;HTU21D;52663;51.038;5.858;2022-09-02T05:17:29;20.66;47.91
65884;HTU21D;52663;51.038;5.858;2022-09-02T05:20:02;20.69;48.05
65884;HTU21D;52663;51.038;5.858;2022-09-02T05:22:29;20.69;48.05
65884;HTU21D;52663;51.038;5.858;2022-09-02T05:24:57;20.72;48.11
65884;HTU21D;52663;51.038;5.858;2022-09-02T05:27:23;20.72;48.23
65884;HTU21D;52663;51.038;5.858;2022-09-02T05:29:54;20.75;48.15
65884;HTU21D;52663;51.038;5.858;2022-09-02T05:32:21;20.73;48.24
65884;HTU21D;52663;51.038;5.858;2022-09-02T05:35:10;20.71;48.34
65884;HTU21D;52663;51.038;5.858;2022-09-02T05:37:36;20.74;48.40
65884;HTU21D;52663;51.038;5.858;2022-09-02T05:40:07;20.75;48.39
65884;HTU21D;52663;51.038;5.858;2022-09-02T05:42:36;20.74;48.31
65884;HTU21D;52663;51.038;5.858;2022-09-02T05:45:04;20.72;48.44
65884;HTU21D;52663;51.038;5.858;2022-09-02T05:47:34;20.73;48.57
65884;HTU21D;52663;51.038;5.858;2022-09-02T05:50:01;20.74;48.63
65884;HTU21D;52663;51.038;5.858;2022-09-02T05:52:27;20.75;48.59
65884;HTU21D;52663;51.038;5.858;2022-09-02T05:54:54;20.74;48.57
65884;HTU21D;52663;51.038;5.858;2022-09-02T05:57:22;20.75;48.67
65884;HTU21D;52663;51.038;5.858;2022-09-02T06:00:04;20.75;48.64
65884;HTU21D;52663;51.038;5.858;2022-09-02T06:02:50;20.74;48.60
65884;HTU21D;52663;51.038;5.858;2022-09-02T06:05:23;20.78;48.60
65884;HTU21D;52663;51.038;5.858;2022-09-02T06:08:03;20.80;48.54
65884;HTU21D;52663;51.038;5.858;2022-09-02T06:10:29;20.81;48.47
65884;HTU21D;52663;51.038;5.858;2022-09-02T06:12:56;20.85;48.35
65884;HTU21D;52663;51.038;5.858;2022-09-02T06:15:28;20.86;48.35
65884;HTU21D;52663;51.038;5.858;2022-09-02T06:17:56;20.92;48.27
65884;HTU21D;52663;51.038;5.858;2022-09-02T06:20:27;20.99;48.09
65884;HTU21D;52663;51.038;5.858;2022-09-02T06:22:57;21.04;47.83
65884;HTU21D;52663;51.038;5.858;2022-09-02T06:25:26;21.05;47.97
65884;HTU21D;52663;51.038;5.858;2022-09-02T06:27:52;21.09;47.87
65884;HTU21D;52663;51.038;5.858;2022-09-02T06:30:18;21.13;47.96
65884;HTU21D;52663;51.038;5.858;2022-09-02T06:32:55;21.17;47.89
65884;HTU21D;52663;51.038;5.858;2022-09-02T06:35:25;21.21;47.70
65884;HTU21D;52663;51.038;5.858;2022-09-02T06:37:54;21.22;47.44
65884;HTU21D;52663;51.038;5.858;2022-09-02T06:40:21;21.25;47.61
65884;HTU21D;52663;51.038;5.858;2022-09-02T06:42:51;21.29;47.63
65884;HTU21D;52663;51.038;5.858;2022-09-02T06:45:29;21.36;47.61
65884;HTU21D;52663;51.038;5.858;2022-09-02T06:47:58;21.45;47.37
65884;HTU21D;52663;51.038;5.858;2022-09-02T06:50:30;21.48;47.22
65884;HTU21D;52663;51.038;5.858;2022-09-02T06:53:08;21.53;47.18
65884;HTU21D;52663;51.038;5.858;2022-09-02T06:55:52;21.59;47.01
65884;HTU21D;52663;51.038;5.858;2022-09-02T06:58:19;21.63;46.95
65884;HTU21D;52663;51.038;5.858;2022-09-02T07:00:48;21.66;47.05
65884;HTU21D;52663;51.038;5.858;2022-09-02T07:03:14;21.68;47.20
65884;HTU21D;52663;51.038;5.858;2022-09-02T07:06:05;21.74;47.18
65884;HTU21D;52663;51.038;5.858;2022-09-02T07:08:40;21.74;46.81
65884;HTU21D;52663;51.038;5.858;2022-09-02T07:11:18;21.73;46.94
65884;HTU21D;52663;51.038;5.858;2022-09-02T07:13:59;21.72;47.01
65884;HTU21D;52663;51.038;5.858;2022-09-02T07:16:34;21.75;46.86
65884;HTU21D;52663;51.038;5.858;2022-09-02T07:19:03;21.80;46.57
65884;HTU21D;52663;51.038;5.858;2022-09-02T07:21:34;21.80;46.82
65884;HTU21D;52663;51.038;5.858;2022-09-02T07:24:04;21.85;46.50
65884;HTU21D;52663;51.038;5.858;2022-09-02T07:26:30;21.92;46.44
65884;HTU21D;52663;51.038;5.858;2022-09-02T07:29:01;21.96;46.38
65884;HTU21D;52663;51.038;5.858;2022-09-02T07:31:27;22.07;46.41
65884;HTU21D;52663;51.038;5.858;2022-09-02T07:34:05;22.19;46.19
65884;HTU21D;52663;51.038;5.858;2022-09-02T07:36:35;22.28;45.85
65884;HTU21D;52663;51.038;5.858;2022-09-02T07:39:07;22.39;45.81
65884;HTU21D;52663;51.038;5.858;2022-09-02T07:41:52;22.57;45.47
65884;HTU21D;52663;51.038;5.858;2022-09-02T07:44:21;22.65;45.25
65884;HTU21D;52663;51.038;5.858;2022-09-02T07:46:49;22.75;44.91
65884;HTU21D;52663;51.038;5.858;2022-09-02T07:49:22;22.78;44.83
65884;HTU21D;52663;51.038;5.858;2022-09-02T07:51:49;22.83;44.78
65884;HTU21D;52663;51.038;5.858;2022-09-02T07:54:29;22.90;44.51
65884;HTU21D;52663;51.038;5.858;2022-09-02T07:56:58;22.91;44.51
65884;HTU21D;52663;51.038;5.858;2022-09-02T07:59:28;22.96;44.54
65884;HTU21D;52663;51.038;5.858;2022-09-02T08:01:56;23.08;44.71
65884;HTU21D;52663;51.038;5.858;2022-09-02T08:04:23;23.20;44.39
65884;HTU21D;52663;51.038;5.858;2022-09-02T08:06:53;23.22;44.12
65884;HTU21D;52663;51.038;5.858;2022-09-02T08:09:20;23.24;44.00
65884;HTU21D;52663;51.038;5.858;2022-09-02T08:11:49;23.26;43.93
65884;HTU21D;52663;51.038;5.858;2022-09-02T08:14:35;23.25;44.12
65884;HTU21D;52663;51.038;5.858;2022-09-02T08:17:02;23.26;44.14
65884;HTU21D;52663;51.038;5.858;2022-09-02T08:19:28;23.28;44.15
65884;HTU21D;52663;51.038;5.858;2022-09-02T08:21:54;23.28;44.13
65884;HTU21D;52663;51.038;5.858;2022-09-02T08:24:24;23.36;43.85
65884;HTU21D;52663;51.038;5.858;2022-09-02T08:26:51;23.40;43.71
65884;HTU21D;52663;51.038;5.858;2022-09-02T08:29:21;23.51;43.76
65884;HTU21D;52663;51.038;5.858;2022-09-02T08:31:49;23.64;43.39
65884;HTU21D;52663;51.038;5.858;2022-09-02T08:34:16;23.76;43.07
65884;HTU21D;52663;51.038;5.858;2022-09-02T08:36:42;23.88;43.00
65884;HTU21D;52663;51.038;5.858;2022-09-02T08:39:10;24.02;42.76
65884;HTU21D;52663;51.038;5.858;2022-09-02T08:42:01;24.16;42.46
65884;HTU21D;52663;51.038;5.858;2022-09-02T08:44:40;24.33;42.19
65884;HTU21D;52663;51.038;5.858;2022-09-02T08:47:14;24.51;41.75
65884;HTU21D;52663;51.038;5.858;2022-09-02T08:49:46;24.75;40.89
65884;HTU21D;52663;51.038;5.858;2022-09-02T08:52:29;25.02;40.71
65884;HTU21D;52663;51.038;5.858;2022-09-02T08:54:59;25.29;40.04
65884;HTU21D;52663;51.038;5.858;2022-09-02T08:57:28;25.52;39.37
65884;HTU21D;52663;51.038;5.858;2022-09-02T08:59:59;25.72;38.78
65884;HTU21D;52663;51.038;5.858;2022-09-02T09:13:46;27.04;35.60
65884;HTU21D;52663;51.038;5.858;2022-09-02T09:19:10;27.82;35.02
65884;HTU21D;52663;51.038;5.858;2022-09-02T09:21:47;28.18;33.18
65884;HTU21D;52663;51.038;5.858;2022-09-02T09:24:39;28.33;32.81
65884;HTU21D;52663;51.038;5.858;2022-09-02T09:27:15;28.47;32.41
65884;HTU21D;52663;51.038;5.858;2022-09-02T09:29:41;28.59;32.15
65884;HTU21D;52663;51.038;5.858;2022-09-02T09:32:30;28.75;32.02
65884;HTU21D;52663;51.038;5.858;2022-09-02T09:40:29;29.32;31.03
65884;HTU21D;52663;51.038;5.858;2022-09-02T09:45:36;29.29;30.17
65884;HTU21D;52663;51.038;5.858;2022-09-02T09:50:47;29.93;30.28
65884;HTU21D;52663;51.038;5.858;2022-09-02T09:53:33;30.28;29.39
65884;HTU21D;52663;51.038;5.858;2022-09-02T09:56:03;30.67;27.62
65884;HTU21D;52663;51.038;5.858;2022-09-02T10:04:04;30.99;26.56
65884;HTU21D;52663;51.038;5.858;2022-09-02T10:09:29;31.59;25.39
65884;HTU21D;52663;51.038;5.858;2022-09-02T10:12:30;31.93;24.76
65884;HTU21D;52663;51.038;5.858;2022-09-02T10:14:58;32.24;24.34
65884;HTU21D;52663;51.038;5.858;2022-09-02T10:17:44;32.73;23.46
65884;HTU21D;52663;51.038;5.858;2022-09-02T10:20:53;33.07;23.04
65884;HTU21D;52663;51.038;5.858;2022-09-02T10:23:44;33.22;22.11
65884;HTU21D;52663;51.038;5.858;2022-09-02T10:26:35;33.13;22.44
65884;HTU21D;52663;51.038;5.858;2022-09-02T10:29:13;33.29;21.68
65884;HTU21D;52663;51.038;5.858;2022-09-02T10:35:00;32.41;22.31
65884;HTU21D;52663;51.038;5.858;2022-09-02T10:46:17;32.53;22.38
65884;HTU21D;52663;51.038;5.858;2022-09-02T10:49:10;32.63;21.97
65884;HTU21D;52663;51.038;5.858;2022-09-02T10:51:54;32.97;21.85
65884;HTU21D;52663;51.038;5.858;2022-09-02T10:57:59;34.08;19.79
65884;HTU21D;52663;51.038;5.858;2022-09-02T11:00:30;34.51;18.85
65884;HTU21D;52663;51.038;5.858;2022-09-02T11:03:31;34.89;18.39
65884;HTU21D;52663;51.038;5.858;2022-09-02T11:09:13;36.03;17.03
65884;HTU21D;52663;51.038;5.858;2022-09-02T11:12:20;36.19;16.80
65884;HTU21D;52663;51.038;5.858;2022-09-02T11:25:44;37.22;15.22
65884;HTU21D;52663;51.038;5.858;2022-09-02T11:28:42;37.50;14.82
65884;HTU21D;52663;51.038;5.858;2022-09-02T11:31:27;37.63;14.28
65884;HTU21D;52663;51.038;5.858;2022-09-02T11:34:01;37.40;14.07
65884;HTU21D;52663;51.038;5.858;2022-09-02T11:36:29;36.99;14.26
65884;HTU21D;52663;51.038;5.858;2022-09-02T11:39:06;37.01;14.62
65884;HTU21D;52663;51.038;5.858;2022-09-02T11:58:32;38.29;12.69
65884;HTU21D;52663;51.038;5.858;2022-09-02T12:03:30;37.80;13.09
65884;HTU21D;52663;51.038;5.858;2022-09-02T12:06:16;37.86;13.18
65884;HTU21D;52663;51.038;5.858;2022-09-02T12:14:04;38.51;12.38
65884;HTU21D;52663;51.038;5.858;2022-09-02T12:16:42;38.47;12.17
65884;HTU21D;52663;51.038;5.858;2022-09-02T12:24:56;38.78;12.15
65884;HTU21D;52663;51.038;5.858;2022-09-02T12:27:34;38.90;11.96
65884;HTU21D;52663;51.038;5.858;2022-09-02T12:30:07;38.78;12.10
65884;HTU21D;52663;51.038;5.858;2022-09-02T12:33:13;38.63;12.08
65884;HTU21D;52663;51.038;5.858;2022-09-02T12:35:57;38.14;11.73
65884;HTU21D;52663;51.038;5.858;2022-09-02T12:38:27;37.66;12.53
65884;HTU21D;52663;51.038;5.858;2022-09-02T12:41:14;37.80;13.07
65884;HTU21D;52663;51.038;5.858;2022-09-02T12:54:47;38.03;12.61
65884;HTU21D;52663;51.038;5.858;2022-09-02T12:57:16;38.07;12.33
65884;HTU21D;52663;51.038;5.858;2022-09-02T12:59:44;37.88;12.33
65884;HTU21D;52663;51.038;5.858;2022-09-02T13:02:24;37.23;12.49
65884;HTU21D;52663;51.038;5.858;2022-09-02T13:07:46;35.82;14.52
65884;HTU21D;52663;51.038;5.858;2022-09-02T13:15:40;34.23;16.29
65884;HTU21D;52663;51.038;5.858;2022-09-02T13:24:55;33.66;16.63
65884;HTU21D;52663;51.038;5.858;2022-09-02T13:30:09;33.18;17.70
65884;HTU21D;52663;51.038;5.858;2022-09-02T13:32:38;33.00;17.47
65884;HTU21D;52663;51.038;5.858;2022-09-02T13:35:08;32.64;18.03
65884;HTU21D;52663;51.038;5.858;2022-09-02T13:37:42;32.50;18.38
65884;HTU21D;52663;51.038;5.858;2022-09-02T13:40:28;32.43;18.30
65884;HTU21D;52663;51.038;5.858;2022-09-02T13:45:38;32.19;18.58
65884;HTU21D;52663;51.038;5.858;2022-09-02T13:50:46;31.78;18.93
65884;HTU21D;52663;51.038;5.858;2022-09-02T13:53:34;31.48;19.17
65884;HTU21D;52663;51.038;5.858;2022-09-02T13:56:05;31.39;19.62
65884;HTU21D;52663;51.038;5.858;2022-09-02T13:58:54;31.50;19.87
65884;HTU21D;52663;51.038;5.858;2022-09-02T14:01:35;31.58;20.15
65884;HTU21D;52663;51.038;5.858;2022-09-02T14:04:10;31.55;20.00
65884;HTU21D;52663;51.038;5.858;2022-09-02T14:06:40;31.46;20.00
65884;HTU21D;52663;51.038;5.858;2022-09-02T14:09:17;31.41;19.89
65884;HTU21D;52663;51.038;5.858;2022-09-02T14:11:46;31.34;19.97
65884;HTU21D;52663;51.038;5.858;2022-09-02T14:14:16;31.16;20.04
65884;HTU21D;52663;51.038;5.858;2022-09-02T14:16:44;30.97;20.33
65884;HTU21D;52663;51.038;5.858;2022-09-02T14:21:46;30.90;20.91
65884;HTU21D;52663;51.038;5.858;2022-09-02T14:24:25;30.72;20.57
65884;HTU21D;52663;51.038;5.858;2022-09-02T14:26:58;30.56;21.17
65884;HTU21D;52663;51.038;5.858;2022-09-02T14:29:33;30.60;21.28
65884;HTU21D;52663;51.038;5.858;2022-09-02T14:32:14;30.70;21.52
65884;HTU21D;52663;51.038;5.858;2022-09-02T14:34:47;30.80;21.15
65884;HTU21D;52663;51.038;5.858;2022-09-02T14:37:26;30.71;21.32
65884;HTU21D;52663;51.038;5.858;2022-09-02T14:40:08;30.65;21.37
65884;HTU21D;52663;51.038;5.858;2022-09-02T14:42:47;30.50;21.53
65884;HTU21D;52663;51.038;5.858;2022-09-02T14:45:30;30.47;21.15
65884;HTU21D;52663;51.038;5.858;2022-09-02T14:48:01;30.25;21.24
65884;HTU21D;52663;51.038;5.858;2022-09-02T14:50:33;30.06;21.34
65884;HTU21D;52663;51.038;5.858;2022-09-02T14:53:07;29.89;21.82
65884;HTU21D;52663;51.038;5.858;2022-09-02T14:55:53;29.81;22.48
65884;HTU21D;52663;51.038;5.858;2022-09-02T14:58:25;29.83;22.44
65884;HTU21D;52663;51.038;5.858;2022-09-02T15:00:54;29.83;22.25
65884;HTU21D;52663;51.038;5.858;2022-09-02T15:03:22;29.80;22.47
65884;HTU21D;52663;51.038;5.858;2022-09-02T15:05:49;29.82;22.27
65884;HTU21D;52663;51.038;5.858;2022-09-02T15:08:15;29.79;22.19
65884;HTU21D;52663;51.038;5.858;2022-09-02T15:10:42;29.76;22.11
65884;HTU21D;52663;51.038;5.858;2022-09-02T15:13:34;29.76;22.31
65884;HTU21D;52663;51.038;5.858;2022-09-02T15:16:01;29.76;22.37
65884;HTU21D;52663;51.038;5.858;2022-09-02T15:18:33;29.71;22.24
65884;HTU21D;52663;51.038;5.858;2022-09-02T15:20:58;29.64;22.24
65884;HTU21D;52663;51.038;5.858;2022-09-02T15:23:33;29.62;22.31
65884;HTU21D;52663;51.038;5.858;2022-09-02T15:26:02;29.60;22.32
65884;HTU21D;52663;51.038;5.858;2022-09-02T15:28:28;29.63;22.52
65884;HTU21D;52663;51.038;5.858;2022-09-02T15:31:00;29.62;22.56
65884;HTU21D;52663;51.038;5.858;2022-09-02T15:33:26;29.62;22.40
65884;HTU21D;52663;51.038;5.858;2022-09-02T15:38:39;29.52;22.50
65884;HTU21D;52663;51.038;5.858;2022-09-02T15:41:23;29.51;22.63
65884;HTU21D;52663;51.038;5.858;2022-09-02T15:43:51;29.51;22.73
65884;HTU21D;52663;51.038;5.858;2022-09-02T15:46:31;29.42;22.54
65884;HTU21D;52663;51.038;5.858;2022-09-02T15:49:06;29.32;22.48
65884;HTU21D;52663;51.038;5.858;2022-09-02T15:51:33;29.22;22.61
65884;HTU21D;52663;51.038;5.858;2022-09-02T15:54:05;29.22;22.96
65884;HTU21D;52663;51.038;5.858;2022-09-02T15:56:33;29.23;22.77
65884;HTU21D;52663;51.038;5.858;2022-09-02T15:59:14;29.21;22.66
65884;HTU21D;52663;51.038;5.858;2022-09-02T16:01:45;29.17;22.79
65884;HTU21D;52663;51.038;5.858;2022-09-02T16:04:12;29.16;22.95
65884;HTU21D;52663;51.038;5.858;2022-09-02T16:06:41;29.16;22.78
65884;HTU21D;52663;51.038;5.858;2022-09-02T16:09:09;29.13;22.97
65884;HTU21D;52663;51.038;5.858;2022-09-02T16:11:40;29.11;23.05
65884;HTU21D;52663;51.038;5.858;2022-09-02T16:14:07;29.06;22.81
65884;HTU21D;52663;51.038;5.858;2022-09-02T16:16:33;29.02;22.86
65884;HTU21D;52663;51.038;5.858;2022-09-02T16:19:01;28.95;22.66
65884;HTU21D;52663;51.038;5.858;2022-09-02T16:21:28;28.90;22.90
65884;HTU21D;52663;51.038;5.858;2022-09-02T16:23:54;28.91;23.08
65884;HTU21D;52663;51.038;5.858;2022-09-02T16:26:21;28.88;22.87
65884;HTU21D;52663;51.038;5.858;2022-09-02T16:28:50;28.84;22.66
65884;HTU21D;52663;51.038;5.858;2022-09-02T16:31:18;28.74;22.56
65884;HTU21D;52663;51.038;5.858;2022-09-02T16:34:02;28.69;22.68
65884;HTU21D;52663;51.038;5.858;2022-09-02T16:37:14;28.64;23.03
65884;HTU21D;52663;51.038;5.858;2022-09-02T16:39:46;28.57;23.01
65884;HTU21D;52663;51.038;5.858;2022-09-02T16:42:11;28.54;22.98
65884;HTU21D;52663;51.038;5.858;2022-09-02T16:44:39;28.46;23.05
65884;HTU21D;52663;51.038;5.858;2022-09-02T16:47:05;28.42;22.99
65884;HTU21D;52663;51.038;5.858;2022-09-02T16:49:31;28.39;23.17
65884;HTU21D;52663;51.038;5.858;2022-09-02T16:51:59;28.40;23.31
65884;HTU21D;52663;51.038;5.858;2022-09-02T16:54:26;28.41;23.16
65884;HTU21D;52663;51.038;5.858;2022-09-02T16:56:54;28.31;23.41
65884;HTU21D;52663;51.038;5.858;2022-09-02T16:59:20;28.28;23.46
65884;HTU21D;52663;51.038;5.858;2022-09-02T17:01:45;28.23;23.46
65884;HTU21D;52663;51.038;5.858;2022-09-02T17:04:11;28.19;23.64
65884;HTU21D;52663;51.038;5.858;2022-09-02T17:06:37;28.14;23.75
65884;HTU21D;52663;51.038;5.858;2022-09-02T17:09:03;28.12;23.84
65884;HTU21D;52663;51.038;5.858;2022-09-02T17:11:31;28.08;23.87
65884;HTU21D;52663;51.038;5.858;2022-09-02T17:14:06;28.01;23.82
65884;HTU21D;52663;51.038;5.858;2022-09-02T17:16:35;27.96;24.01
65884;HTU21D;52663;51.038;5.858;2022-09-02T17:19:03;27.94;24.31
65884;HTU21D;52663;51.038;5.858;2022-09-02T17:21:33;27.93;24.26
65884;HTU21D;52663;51.038;5.858;2022-09-02T17:24:01;27.89;24.23
65884;HTU21D;52663;51.038;5.858;2022-09-02T17:26:32;27.82;24.24
65884;HTU21D;52663;51.038;5.858;2022-09-02T17:29:00;27.73;24.24
65884;HTU21D;52663;51.038;5.858;2022-09-02T17:31:29;27.67;24.43
65884;HTU21D;52663;51.038;5.858;2022-09-02T17:33:58;27.61;24.58
65884;HTU21D;52663;51.038;5.858;2022-09-02T17:36:29;27.57;24.73
65884;HTU21D;52663;51.038;5.858;2022-09-02T17:39:00;27.54;24.91
65884;HTU21D;52663;51.038;5.858;2022-09-02T17:41:26;27.51;25.07
65884;HTU21D;52663;51.038;5.858;2022-09-02T17:44:21;27.45;25.32
65884;HTU21D;52663;51.038;5.858;2022-09-02T17:46:49;27.44;25.48
65884;HTU21D;52663;51.038;5.858;2022-09-02T17:49:15;27.38;25.64
65884;HTU21D;52663;51.038;5.858;2022-09-02T17:51:41;27.30;25.67
65884;HTU21D;52663;51.038;5.858;2022-09-02T17:54:08;27.23;25.75
65884;HTU21D;52663;51.038;5.858;2022-09-02T18:05:50;26.86;25.88